sensor_id;sensor_type;location;lat;lon;timestamp;P1;durP1;ratioP1;P2;durP2;ratioP2
59074;SDS011;44860;53.020;6.738;2023-03-26T00:01:10;16.60;;;3.40;;
59074;SDS011;44860;53.020;6.738;2023-03-26T00:03:41;15.05;;;3.72;;
59074;SDS011;44860;53.020;6.738;2023-03-26T00:06:13;19.85;;;3.70;;
59074;SDS011;44860;53.020;6.738;2023-03-26T00:08:40;17.05;;;3.50;;
59074;SDS011;44860;53.020;6.738;2023-03-26T00:11:07;14.15;;;3.60;;
59074;SDS011;44860;53.020;6.738;2023-03-26T00:13:34;17.33;;;3.33;;
59074;SDS011;44860;53.020;6.738;2023-03-26T00:16:00;25.95;;;3.50;;
59074;SDS011;44860;53.020;6.738;2023-03-26T00:18:27;15.43;;;3.13;;
59074;SDS011;44860;53.020;6.738;2023-03-26T00:20:59;18.08;;;3.65;;
59074;SDS011;44860;53.020;6.738;2023-03-26T00:23:26;17.52;;;3.60;;
59074;SDS011;44860;53.020;6.738;2023-03-26T00:25:53;16.48;;;3.95;;
59074;SDS011;44860;53.020;6.738;2023-03-26T00:28:20;18.23;;;3.40;;
59074;SDS011;44860;53.020;6.738;2023-03-26T00:30:47;15.30;;;3.53;;
59074;SDS011;44860;53.020;6.738;2023-03-26T00:33:13;17.55;;;2.97;;
59074;SDS011;44860;53.020;6.738;2023-03-26T00:35:41;16.83;;;3.10;;
59074;SDS011;44860;53.020;6.738;2023-03-26T00:38:11;17.42;;;3.10;;
59074;SDS011;44860;53.020;6.738;2023-03-26T00:40:39;16.02;;;3.20;;
59074;SDS011;44860;53.020;6.738;2023-03-26T00:43:11;15.00;;;3.17;;
59074;SDS011;44860;53.020;6.738;2023-03-26T00:45:53;17.02;;;3.63;;
59074;SDS011;44860;53.020;6.738;2023-03-26T00:48:20;16.55;;;3.47;;
59074;SDS011;44860;53.020;6.738;2023-03-26T00:50:49;18.83;;;4.40;;
59074;SDS011;44860;53.020;6.738;2023-03-26T00:53:15;18.40;;;4.07;;
59074;SDS011;44860;53.020;6.738;2023-03-26T00:55:43;21.20;;;4.40;;
59074;SDS011;44860;53.020;6.738;2023-03-26T00:58:16;16.10;;;3.97;;
59074;SDS011;44860;53.020;6.738;2023-03-26T01:01:05;20.10;;;4.03;;
59074;SDS011;44860;53.020;6.738;2023-03-26T01:03:39;18.33;;;3.78;;
59074;SDS011;44860;53.020;6.738;2023-03-26T01:06:07;14.07;;;3.20;;
59074;SDS011;44860;53.020;6.738;2023-03-26T01:08:51;17.95;;;3.45;;
59074;SDS011;44860;53.020;6.738;2023-03-26T01:11:27;15.90;;;3.35;;
59074;SDS011;44860;53.020;6.738;2023-03-26T01:16:52;13.60;;;3.50;;
59074;SDS011;44860;53.020;6.738;2023-03-26T01:22:03;12.27;;;3.08;;
59074;SDS011;44860;53.020;6.738;2023-03-26T01:24:30;16.88;;;3.42;;
59074;SDS011;44860;53.020;6.738;2023-03-26T01:27:02;13.73;;;3.13;;
59074;SDS011;44860;53.020;6.738;2023-03-26T01:33:01;14.65;;;3.60;;
59074;SDS011;44860;53.020;6.738;2023-03-26T01:35:59;12.77;;;3.30;;
59074;SDS011;44860;53.020;6.738;2023-03-26T01:41:21;16.15;;;3.20;;
59074;SDS011;44860;53.020;6.738;2023-03-26T01:44:00;16.92;;;3.20;;
59074;SDS011;44860;53.020;6.738;2023-03-26T01:46:32;15.15;;;2.80;;
59074;SDS011;44860;53.020;6.738;2023-03-26T01:49:00;19.80;;;3.17;;
59074;SDS011;44860;53.020;6.738;2023-03-26T01:51:32;16.65;;;3.47;;
59074;SDS011;44860;53.020;6.738;2023-03-26T01:54:00;14.65;;;3.38;;
59074;SDS011;44860;53.020;6.738;2023-03-26T01:56:45;20.02;;;4.28;;
59074;SDS011;44860;53.020;6.738;2023-03-26T02:09:53;13.25;;;3.22;;
59074;SDS011;44860;53.020;6.738;2023-03-26T02:12:23;14.90;;;3.55;;
59074;SDS011;44860;53.020;6.738;2023-03-26T02:14:51;14.23;;;3.50;;
59074;SDS011;44860;53.020;6.738;2023-03-26T02:17:17;16.40;;;3.90;;
59074;SDS011;44860;53.020;6.738;2023-03-26T02:19:48;18.02;;;3.08;;
59074;SDS011;44860;53.020;6.738;2023-03-26T02:22:15;16.63;;;3.38;;
59074;SDS011;44860;53.020;6.738;2023-03-26T02:24:41;21.23;;;3.78;;
59074;SDS011;44860;53.020;6.738;2023-03-26T02:27:07;15.57;;;3.63;;
59074;SDS011;44860;53.020;6.738;2023-03-26T02:29:34;16.60;;;3.67;;
59074;SDS011;44860;53.020;6.738;2023-03-26T02:32:07;23.42;;;3.75;;
59074;SDS011;44860;53.020;6.738;2023-03-26T02:34:37;17.55;;;3.40;;
59074;SDS011;44860;53.020;6.738;2023-03-26T02:37:03;18.48;;;3.80;;
59074;SDS011;44860;53.020;6.738;2023-03-26T02:39:29;12.80;;;3.25;;
59074;SDS011;44860;53.020;6.738;2023-03-26T02:41:55;19.98;;;3.28;;
59074;SDS011;44860;53.020;6.738;2023-03-26T02:44:20;16.50;;;4.03;;
59074;SDS011;44860;53.020;6.738;2023-03-26T02:46:46;17.15;;;3.50;;
59074;SDS011;44860;53.020;6.738;2023-03-26T02:49:12;18.38;;;4.03;;
59074;SDS011;44860;53.020;6.738;2023-03-26T02:51:37;23.83;;;4.07;;
59074;SDS011;44860;53.020;6.738;2023-03-26T02:54:03;18.75;;;3.67;;
59074;SDS011;44860;53.020;6.738;2023-03-26T02:56:31;16.05;;;3.53;;
59074;SDS011;44860;53.020;6.738;2023-03-26T02:58:56;13.95;;;3.38;;
59074;SDS011;44860;53.020;6.738;2023-03-26T03:01:22;15.93;;;3.75;;
59074;SDS011;44860;53.020;6.738;2023-03-26T03:03:48;18.92;;;3.28;;
59074;SDS011;44860;53.020;6.738;2023-03-26T03:06:17;17.48;;;3.35;;
59074;SDS011;44860;53.020;6.738;2023-03-26T03:08:45;13.45;;;2.90;;
59074;SDS011;44860;53.020;6.738;2023-03-26T03:11:12;16.83;;;3.42;;
59074;SDS011;44860;53.020;6.738;2023-03-26T03:13:46;19.10;;;3.58;;
59074;SDS011;44860;53.020;6.738;2023-03-26T03:16:15;16.77;;;3.25;;
59074;SDS011;44860;53.020;6.738;2023-03-26T03:18:41;18.08;;;4.05;;
59074;SDS011;44860;53.020;6.738;2023-03-26T03:21:07;17.27;;;3.83;;
59074;SDS011;44860;53.020;6.738;2023-03-26T03:23:33;19.50;;;4.03;;
59074;SDS011;44860;53.020;6.738;2023-03-26T03:25:58;14.55;;;3.35;;
59074;SDS011;44860;53.020;6.738;2023-03-26T03:28:24;13.73;;;3.10;;
59074;SDS011;44860;53.020;6.738;2023-03-26T03:30:50;18.58;;;4.05;;
59074;SDS011;44860;53.020;6.738;2023-03-26T03:33:21;13.57;;;4.20;;
59074;SDS011;44860;53.020;6.738;2023-03-26T03:35:47;22.05;;;3.95;;
59074;SDS011;44860;53.020;6.738;2023-03-26T03:38:15;17.60;;;3.42;;
59074;SDS011;44860;53.020;6.738;2023-03-26T03:40:42;16.17;;;3.78;;
59074;SDS011;44860;53.020;6.738;2023-03-26T03:43:11;17.05;;;3.95;;
59074;SDS011;44860;53.020;6.738;2023-03-26T03:45:39;20.40;;;3.45;;
59074;SDS011;44860;53.020;6.738;2023-03-26T03:48:05;14.77;;;3.40;;
59074;SDS011;44860;53.020;6.738;2023-03-26T03:50:30;15.48;;;3.70;;
59074;SDS011;44860;53.020;6.738;2023-03-26T03:52:56;18.63;;;3.80;;
59074;SDS011;44860;53.020;6.738;2023-03-26T03:55:23;16.08;;;4.00;;
59074;SDS011;44860;53.020;6.738;2023-03-26T03:57:51;23.42;;;4.38;;
59074;SDS011;44860;53.020;6.738;2023-03-26T04:00:18;16.23;;;3.42;;
59074;SDS011;44860;53.020;6.738;2023-03-26T04:02:44;17.83;;;4.20;;
59074;SDS011;44860;53.020;6.738;2023-03-26T04:05:13;15.20;;;3.33;;
59074;SDS011;44860;53.020;6.738;2023-03-26T04:07:39;17.80;;;3.83;;
59074;SDS011;44860;53.020;6.738;2023-03-26T04:10:06;15.75;;;3.45;;
59074;SDS011;44860;53.020;6.738;2023-03-26T04:12:33;15.15;;;3.78;;
59074;SDS011;44860;53.020;6.738;2023-03-26T04:14:59;15.43;;;3.70;;
59074;SDS011;44860;53.020;6.738;2023-03-26T04:17:25;15.20;;;3.38;;
59074;SDS011;44860;53.020;6.738;2023-03-26T04:19:51;14.07;;;3.80;;
59074;SDS011;44860;53.020;6.738;2023-03-26T04:22:17;17.83;;;3.58;;
59074;SDS011;44860;53.020;6.738;2023-03-26T04:24:43;20.55;;;3.63;;
59074;SDS011;44860;53.020;6.738;2023-03-26T04:27:10;19.98;;;3.58;;
59074;SDS011;44860;53.020;6.738;2023-03-26T04:29:40;15.80;;;3.35;;
59074;SDS011;44860;53.020;6.738;2023-03-26T04:32:14;19.00;;;4.00;;
59074;SDS011;44860;53.020;6.738;2023-03-26T04:34:54;15.40;;;3.20;;
59074;SDS011;44860;53.020;6.738;2023-03-26T04:37:24;19.60;;;4.13;;
59074;SDS011;44860;53.020;6.738;2023-03-26T04:39:52;16.58;;;3.60;;
59074;SDS011;44860;53.020;6.738;2023-03-26T04:42:19;19.10;;;3.67;;
59074;SDS011;44860;53.020;6.738;2023-03-26T04:44:48;13.55;;;3.20;;
59074;SDS011;44860;53.020;6.738;2023-03-26T04:47:15;17.13;;;3.28;;
59074;SDS011;44860;53.020;6.738;2023-03-26T04:49:42;18.75;;;3.78;;
59074;SDS011;44860;53.020;6.738;2023-03-26T04:52:11;14.52;;;3.10;;
59074;SDS011;44860;53.020;6.738;2023-03-26T04:54:38;15.57;;;3.33;;
59074;SDS011;44860;53.020;6.738;2023-03-26T04:59:41;14.30;;;3.65;;
59074;SDS011;44860;53.020;6.738;2023-03-26T05:02:07;15.18;;;3.25;;
59074;SDS011;44860;53.020;6.738;2023-03-26T05:04:35;13.13;;;3.15;;
59074;SDS011;44860;53.020;6.738;2023-03-26T05:07:03;11.25;;;2.95;;
59074;SDS011;44860;53.020;6.738;2023-03-26T05:09:29;16.40;;;3.33;;
59074;SDS011;44860;53.020;6.738;2023-03-26T05:11:55;15.85;;;3.08;;
59074;SDS011;44860;53.020;6.738;2023-03-26T05:14:22;10.93;;;3.17;;
59074;SDS011;44860;53.020;6.738;2023-03-26T05:16:48;15.05;;;3.05;;
59074;SDS011;44860;53.020;6.738;2023-03-26T05:19:17;17.08;;;2.95;;
59074;SDS011;44860;53.020;6.738;2023-03-26T05:21:43;15.60;;;3.40;;
59074;SDS011;44860;53.020;6.738;2023-03-26T05:24:08;15.00;;;3.13;;
59074;SDS011;44860;53.020;6.738;2023-03-26T05:26:34;17.83;;;3.58;;
59074;SDS011;44860;53.020;6.738;2023-03-26T05:29:00;16.60;;;3.90;;
59074;SDS011;44860;53.020;6.738;2023-03-26T05:31:27;10.02;;;3.00;;
59074;SDS011;44860;53.020;6.738;2023-03-26T05:33:55;10.10;;;3.03;;
59074;SDS011;44860;53.020;6.738;2023-03-26T05:36:21;14.68;;;3.20;;
59074;SDS011;44860;53.020;6.738;2023-03-26T05:38:47;17.27;;;4.20;;
59074;SDS011;44860;53.020;6.738;2023-03-26T05:41:14;16.08;;;4.10;;
59074;SDS011;44860;53.020;6.738;2023-03-26T05:43:41;15.38;;;3.63;;
59074;SDS011;44860;53.020;6.738;2023-03-26T05:46:08;16.88;;;3.20;;
59074;SDS011;44860;53.020;6.738;2023-03-26T05:48:35;16.70;;;4.05;;
59074;SDS011;44860;53.020;6.738;2023-03-26T05:51:02;13.57;;;3.15;;
59074;SDS011;44860;53.020;6.738;2023-03-26T05:53:28;14.35;;;3.38;;
59074;SDS011;44860;53.020;6.738;2023-03-26T05:55:54;19.27;;;3.85;;
59074;SDS011;44860;53.020;6.738;2023-03-26T05:58:23;18.77;;;3.97;;
59074;SDS011;44860;53.020;6.738;2023-03-26T06:00:57;14.18;;;3.47;;
59074;SDS011;44860;53.020;6.738;2023-03-26T06:03:24;17.45;;;3.53;;
59074;SDS011;44860;53.020;6.738;2023-03-26T06:05:49;19.42;;;3.92;;
59074;SDS011;44860;53.020;6.738;2023-03-26T06:08:15;15.75;;;3.92;;
59074;SDS011;44860;53.020;6.738;2023-03-26T06:10:41;13.45;;;3.22;;
59074;SDS011;44860;53.020;6.738;2023-03-26T06:13:06;13.60;;;3.63;;
59074;SDS011;44860;53.020;6.738;2023-03-26T06:15:32;20.60;;;4.10;;
59074;SDS011;44860;53.020;6.738;2023-03-26T06:17:59;17.48;;;4.35;;
59074;SDS011;44860;53.020;6.738;2023-03-26T06:20:24;18.15;;;4.18;;
59074;SDS011;44860;53.020;6.738;2023-03-26T06:22:50;15.68;;;3.63;;
59074;SDS011;44860;53.020;6.738;2023-03-26T06:25:15;18.67;;;3.65;;
59074;SDS011;44860;53.020;6.738;2023-03-26T06:27:41;22.10;;;4.00;;
59074;SDS011;44860;53.020;6.738;2023-03-26T06:30:07;12.40;;;3.38;;
59074;SDS011;44860;53.020;6.738;2023-03-26T06:32:33;20.70;;;3.95;;
59074;SDS011;44860;53.020;6.738;2023-03-26T06:34:58;16.70;;;3.70;;
59074;SDS011;44860;53.020;6.738;2023-03-26T06:37:24;17.92;;;3.58;;
59074;SDS011;44860;53.020;6.738;2023-03-26T06:39:50;21.52;;;3.72;;
59074;SDS011;44860;53.020;6.738;2023-03-26T06:42:15;18.48;;;3.40;;
59074;SDS011;44860;53.020;6.738;2023-03-26T06:44:41;23.75;;;4.45;;
59074;SDS011;44860;53.020;6.738;2023-03-26T06:47:07;23.02;;;3.85;;
59074;SDS011;44860;53.020;6.738;2023-03-26T06:49:32;20.95;;;3.22;;
59074;SDS011;44860;53.020;6.738;2023-03-26T06:51:58;16.02;;;3.25;;
59074;SDS011;44860;53.020;6.738;2023-03-26T06:54:26;24.10;;;3.10;;
59074;SDS011;44860;53.020;6.738;2023-03-26T06:56:51;29.30;;;4.40;;
59074;SDS011;44860;53.020;6.738;2023-03-26T06:59:18;17.85;;;3.00;;
59074;SDS011;44860;53.020;6.738;2023-03-26T07:01:43;17.05;;;3.47;;
59074;SDS011;44860;53.020;6.738;2023-03-26T07:04:09;19.85;;;3.60;;
59074;SDS011;44860;53.020;6.738;2023-03-26T07:06:35;17.17;;;3.30;;
59074;SDS011;44860;53.020;6.738;2023-03-26T07:09:00;21.40;;;3.70;;
59074;SDS011;44860;53.020;6.738;2023-03-26T07:11:26;20.23;;;3.85;;
59074;SDS011;44860;53.020;6.738;2023-03-26T07:13:53;19.45;;;3.35;;
59074;SDS011;44860;53.020;6.738;2023-03-26T07:16:23;19.20;;;3.80;;
59074;SDS011;44860;53.020;6.738;2023-03-26T07:18:49;28.15;;;3.95;;
59074;SDS011;44860;53.020;6.738;2023-03-26T07:21:16;24.25;;;5.00;;
59074;SDS011;44860;53.020;6.738;2023-03-26T07:23:43;15.05;;;3.67;;
59074;SDS011;44860;53.020;6.738;2023-03-26T07:31:24;20.25;;;3.88;;
59074;SDS011;44860;53.020;6.738;2023-03-26T07:37:00;28.45;;;4.25;;
59074;SDS011;44860;53.020;6.738;2023-03-26T07:40:00;23.98;;;3.40;;
59074;SDS011;44860;53.020;6.738;2023-03-26T07:45:29;19.60;;;3.60;;
59074;SDS011;44860;53.020;6.738;2023-03-26T07:48:06;17.50;;;3.20;;
59074;SDS011;44860;53.020;6.738;2023-03-26T07:50:43;19.90;;;3.45;;
59074;SDS011;44860;53.020;6.738;2023-03-26T07:53:09;14.40;;;3.25;;
59074;SDS011;44860;53.020;6.738;2023-03-26T08:01:23;16.25;;;3.67;;
59074;SDS011;44860;53.020;6.738;2023-03-26T08:07:08;21.90;;;3.25;;
59074;SDS011;44860;53.020;6.738;2023-03-26T08:10:00;16.45;;;3.05;;
59074;SDS011;44860;53.020;6.738;2023-03-26T08:18:12;17.80;;;3.50;;
59074;SDS011;44860;53.020;6.738;2023-03-26T08:20:49;17.08;;;3.50;;
59074;SDS011;44860;53.020;6.738;2023-03-26T08:28:57;22.13;;;3.38;;
59074;SDS011;44860;53.020;6.738;2023-03-26T08:31:30;13.93;;;2.67;;
59074;SDS011;44860;53.020;6.738;2023-03-26T08:34:00;20.33;;;3.50;;
59074;SDS011;44860;53.020;6.738;2023-03-26T08:36:26;16.00;;;3.30;;
59074;SDS011;44860;53.020;6.738;2023-03-26T08:38:52;17.92;;;3.35;;
59074;SDS011;44860;53.020;6.738;2023-03-26T08:41:33;16.58;;;3.47;;
59074;SDS011;44860;53.020;6.738;2023-03-26T09:09:50;17.00;;;3.80;;
59074;SDS011;44860;53.020;6.738;2023-03-26T09:15:48;16.67;;;3.13;;
59074;SDS011;44860;53.020;6.738;2023-03-26T09:18:46;21.40;;;3.47;;
59074;SDS011;44860;53.020;6.738;2023-03-26T09:21:36;17.35;;;3.90;;
59074;SDS011;44860;53.020;6.738;2023-03-26T09:32:58;13.65;;;2.90;;
59074;SDS011;44860;53.020;6.738;2023-03-26T09:35:52;22.35;;;3.55;;
59074;SDS011;44860;53.020;6.738;2023-03-26T10:08:54;16.23;;;3.03;;
59074;SDS011;44860;53.020;6.738;2023-03-26T10:11:38;16.38;;;3.42;;
59074;SDS011;44860;53.020;6.738;2023-03-26T10:14:19;16.27;;;3.10;;
59074;SDS011;44860;53.020;6.738;2023-03-26T10:22:55;23.02;;;3.72;;
59074;SDS011;44860;53.020;6.738;2023-03-26T10:25:46;18.48;;;3.35;;
59074;SDS011;44860;53.020;6.738;2023-03-26T10:36:37;13.55;;;2.88;;
59074;SDS011;44860;53.020;6.738;2023-03-26T10:48:06;14.57;;;2.58;;
59074;SDS011;44860;53.020;6.738;2023-03-26T10:50:54;17.23;;;2.97;;
59074;SDS011;44860;53.020;6.738;2023-03-26T10:53:51;16.23;;;2.78;;
59074;SDS011;44860;53.020;6.738;2023-03-26T10:56:34;17.95;;;3.33;;
59074;SDS011;44860;53.020;6.738;2023-03-26T10:59:14;16.83;;;3.10;;
59074;SDS011;44860;53.020;6.738;2023-03-26T11:04:35;15.70;;;3.20;;
59074;SDS011;44860;53.020;6.738;2023-03-26T11:10:05;15.85;;;3.38;;
59074;SDS011;44860;53.020;6.738;2023-03-26T11:15:29;14.73;;;3.05;;
59074;SDS011;44860;53.020;6.738;2023-03-26T11:18:07;17.10;;;3.05;;
59074;SDS011;44860;53.020;6.738;2023-03-26T11:25:59;16.90;;;3.03;;
59074;SDS011;44860;53.020;6.738;2023-03-26T11:28:32;18.52;;;3.22;;
59074;SDS011;44860;53.020;6.738;2023-03-26T11:31:27;10.95;;;3.00;;
59074;SDS011;44860;53.020;6.738;2023-03-26T11:34:03;14.80;;;3.42;;
59074;SDS011;44860;53.020;6.738;2023-03-26T11:36:36;12.10;;;2.80;;
59074;SDS011;44860;53.020;6.738;2023-03-26T11:39:09;13.82;;;2.85;;
59074;SDS011;44860;53.020;6.738;2023-03-26T11:41:39;13.35;;;2.92;;
59074;SDS011;44860;53.020;6.738;2023-03-26T11:44:09;10.82;;;2.50;;
59074;SDS011;44860;53.020;6.738;2023-03-26T11:46:51;16.27;;;3.58;;
59074;SDS011;44860;53.020;6.738;2023-03-26T11:49:25;14.15;;;2.47;;
59074;SDS011;44860;53.020;6.738;2023-03-26T11:51:52;15.07;;;2.80;;
59074;SDS011;44860;53.020;6.738;2023-03-26T11:54:18;12.85;;;3.10;;
59074;SDS011;44860;53.020;6.738;2023-03-26T12:01:57;16.00;;;2.88;;
59074;SDS011;44860;53.020;6.738;2023-03-26T12:04:44;15.13;;;2.70;;
59074;SDS011;44860;53.020;6.738;2023-03-26T12:07:19;16.63;;;2.85;;
59074;SDS011;44860;53.020;6.738;2023-03-26T12:10:00;19.00;;;3.35;;
59074;SDS011;44860;53.020;6.738;2023-03-26T12:12:29;13.55;;;2.72;;
59074;SDS011;44860;53.020;6.738;2023-03-26T12:14:57;17.80;;;3.28;;
59074;SDS011;44860;53.020;6.738;2023-03-26T12:17:25;15.85;;;3.15;;
59074;SDS011;44860;53.020;6.738;2023-03-26T12:19:55;12.88;;;2.63;;
59074;SDS011;44860;53.020;6.738;2023-03-26T12:25:08;14.57;;;2.95;;
59074;SDS011;44860;53.020;6.738;2023-03-26T12:27:44;11.95;;;2.50;;
59074;SDS011;44860;53.020;6.738;2023-03-26T12:30:20;13.43;;;2.80;;
59074;SDS011;44860;53.020;6.738;2023-03-26T12:32:49;13.20;;;3.00;;
59074;SDS011;44860;53.020;6.738;2023-03-26T12:35:26;15.00;;;2.50;;
59074;SDS011;44860;53.020;6.738;2023-03-26T12:37:55;14.90;;;2.67;;
59074;SDS011;44860;53.020;6.738;2023-03-26T12:40:37;15.88;;;2.67;;
59074;SDS011;44860;53.020;6.738;2023-03-26T12:43:27;10.60;;;2.58;;
59074;SDS011;44860;53.020;6.738;2023-03-26T12:45:55;13.60;;;2.55;;
59074;SDS011;44860;53.020;6.738;2023-03-26T12:48:23;16.08;;;2.72;;
59074;SDS011;44860;53.020;6.738;2023-03-26T12:50:52;15.90;;;3.25;;
59074;SDS011;44860;53.020;6.738;2023-03-26T12:56:35;12.05;;;2.47;;
59074;SDS011;44860;53.020;6.738;2023-03-26T13:01:53;16.50;;;4.30;;
59074;SDS011;44860;53.020;6.738;2023-03-26T13:06:57;14.73;;;2.92;;
59074;SDS011;44860;53.020;6.738;2023-03-26T13:09:48;14.75;;;3.55;;
59074;SDS011;44860;53.020;6.738;2023-03-26T13:17:55;13.63;;;2.58;;
59074;SDS011;44860;53.020;6.738;2023-03-26T13:20:49;13.18;;;2.65;;
59074;SDS011;44860;53.020;6.738;2023-03-26T13:23:53;14.63;;;2.60;;
59074;SDS011;44860;53.020;6.738;2023-03-26T13:29:22;5.93;;;2.00;;
59074;SDS011;44860;53.020;6.738;2023-03-26T13:32:07;14.57;;;2.53;;
59074;SDS011;44860;53.020;6.738;2023-03-26T13:43:30;12.80;;;2.47;;
59074;SDS011;44860;53.020;6.738;2023-03-26T13:48:37;10.60;;;2.50;;
59074;SDS011;44860;53.020;6.738;2023-03-26T13:51:26;12.98;;;2.22;;
59074;SDS011;44860;53.020;6.738;2023-03-26T13:54:29;13.48;;;2.30;;
59074;SDS011;44860;53.020;6.738;2023-03-26T13:57:14;12.85;;;2.63;;
59074;SDS011;44860;53.020;6.738;2023-03-26T14:05:18;15.48;;;4.32;;
59074;SDS011;44860;53.020;6.738;2023-03-26T14:10:36;13.43;;;3.08;;
59074;SDS011;44860;53.020;6.738;2023-03-26T14:13:14;9.73;;;2.72;;
59074;SDS011;44860;53.020;6.738;2023-03-26T14:15:46;18.10;;;3.15;;
59074;SDS011;44860;53.020;6.738;2023-03-26T14:18:34;12.27;;;2.70;;
59074;SDS011;44860;53.020;6.738;2023-03-26T14:27:07;11.35;;;2.97;;
59074;SDS011;44860;53.020;6.738;2023-03-26T14:38:52;10.95;;;1.92;;
59074;SDS011;44860;53.020;6.738;2023-03-26T14:52:30;12.07;;;2.55;;
59074;SDS011;44860;53.020;6.738;2023-03-26T14:56:02;10.93;;;2.38;;
59074;SDS011;44860;53.020;6.738;2023-03-26T15:01:19;13.75;;;2.60;;
59074;SDS011;44860;53.020;6.738;2023-03-26T15:07:02;11.75;;;2.03;;
59074;SDS011;44860;53.020;6.738;2023-03-26T15:10:09;11.00;;;2.65;;
59074;SDS011;44860;53.020;6.738;2023-03-26T15:16:06;12.03;;;2.63;;
59074;SDS011;44860;53.020;6.738;2023-03-26T15:18:56;10.80;;;2.03;;
59074;SDS011;44860;53.020;6.738;2023-03-26T15:28:10;14.52;;;3.67;;
59074;SDS011;44860;53.020;6.738;2023-03-26T15:33:43;12.18;;;2.78;;
59074;SDS011;44860;53.020;6.738;2023-03-26T15:36:57;10.45;;;2.72;;
59074;SDS011;44860;53.020;6.738;2023-03-26T15:50:45;9.40;;;2.10;;
59074;SDS011;44860;53.020;6.738;2023-03-26T15:54:08;13.98;;;2.40;;
59074;SDS011;44860;53.020;6.738;2023-03-26T16:18:31;11.10;;;2.35;;
59074;SDS011;44860;53.020;6.738;2023-03-26T16:26:40;14.05;;;2.45;;
59074;SDS011;44860;53.020;6.738;2023-03-26T16:29:19;13.98;;;2.47;;
59074;SDS011;44860;53.020;6.738;2023-03-26T16:42:48;15.57;;;3.45;;
59074;SDS011;44860;53.020;6.738;2023-03-26T16:56:44;12.75;;;2.95;;
59074;SDS011;44860;53.020;6.738;2023-03-26T17:12:49;13.82;;;2.50;;
59074;SDS011;44860;53.020;6.738;2023-03-26T17:18:15;11.45;;;2.05;;
59074;SDS011;44860;53.020;6.738;2023-03-26T17:31:42;14.73;;;3.42;;
59074;SDS011;44860;53.020;6.738;2023-03-26T17:34:38;12.43;;;2.47;;
59074;SDS011;44860;53.020;6.738;2023-03-26T17:44:50;13.57;;;2.45;;
59074;SDS011;44860;53.020;6.738;2023-03-26T17:47:30;13.80;;;2.95;;
59074;SDS011;44860;53.020;6.738;2023-03-26T17:50:21;12.35;;;2.30;;
59074;SDS011;44860;53.020;6.738;2023-03-26T17:52:59;15.85;;;2.28;;
59074;SDS011;44860;53.020;6.738;2023-03-26T17:55:45;10.98;;;2.95;;
59074;SDS011;44860;53.020;6.738;2023-03-26T17:58:19;17.13;;;2.67;;
59074;SDS011;44860;53.020;6.738;2023-03-26T18:00:51;9.95;;;2.72;;
59074;SDS011;44860;53.020;6.738;2023-03-26T18:03:29;15.40;;;2.38;;
59074;SDS011;44860;53.020;6.738;2023-03-26T18:06:08;12.20;;;2.38;;
59074;SDS011;44860;53.020;6.738;2023-03-26T18:21:21;9.85;;;2.17;;
59074;SDS011;44860;53.020;6.738;2023-03-26T18:23:56;12.73;;;2.38;;
59074;SDS011;44860;53.020;6.738;2023-03-26T18:26:34;14.15;;;2.17;;
59074;SDS011;44860;53.020;6.738;2023-03-26T18:29:25;11.98;;;2.13;;
59074;SDS011;44860;53.020;6.738;2023-03-26T18:31:58;12.32;;;2.03;;
59074;SDS011;44860;53.020;6.738;2023-03-26T18:34:30;13.05;;;2.70;;
59074;SDS011;44860;53.020;6.738;2023-03-26T18:36:59;9.55;;;2.28;;
59074;SDS011;44860;53.020;6.738;2023-03-26T18:42:34;11.18;;;2.10;;
59074;SDS011;44860;53.020;6.738;2023-03-26T18:45:00;13.43;;;2.25;;
59074;SDS011;44860;53.020;6.738;2023-03-26T18:47:32;11.68;;;2.22;;
59074;SDS011;44860;53.020;6.738;2023-03-26T18:49:57;12.52;;;2.38;;
59074;SDS011;44860;53.020;6.738;2023-03-26T18:52:24;14.60;;;2.30;;
59074;SDS011;44860;53.020;6.738;2023-03-26T18:54:52;17.00;;;2.97;;
59074;SDS011;44860;53.020;6.738;2023-03-26T18:57:22;14.45;;;2.70;;
59074;SDS011;44860;53.020;6.738;2023-03-26T18:59:50;13.57;;;2.70;;
59074;SDS011;44860;53.020;6.738;2023-03-26T19:02:18;12.82;;;2.10;;
59074;SDS011;44860;53.020;6.738;2023-03-26T19:04:46;7.43;;;1.50;;
59074;SDS011;44860;53.020;6.738;2023-03-26T19:07:19;18.35;;;3.10;;
59074;SDS011;44860;53.020;6.738;2023-03-26T19:09:47;12.70;;;2.65;;
59074;SDS011;44860;53.020;6.738;2023-03-26T19:12:16;12.98;;;1.90;;
59074;SDS011;44860;53.020;6.738;2023-03-26T19:15:05;10.75;;;2.58;;
59074;SDS011;44860;53.020;6.738;2023-03-26T19:17:46;11.25;;;2.55;;
59074;SDS011;44860;53.020;6.738;2023-03-26T19:20:20;11.13;;;2.83;;
59074;SDS011;44860;53.020;6.738;2023-03-26T19:22:48;23.00;;;3.78;;
59074;SDS011;44860;53.020;6.738;2023-03-26T19:25:19;13.73;;;2.50;;
59074;SDS011;44860;53.020;6.738;2023-03-26T19:27:52;12.23;;;2.55;;
59074;SDS011;44860;53.020;6.738;2023-03-26T19:30:31;13.77;;;2.38;;
59074;SDS011;44860;53.020;6.738;2023-03-26T19:33:03;13.13;;;3.22;;
59074;SDS011;44860;53.020;6.738;2023-03-26T19:35:37;10.00;;;1.83;;
59074;SDS011;44860;53.020;6.738;2023-03-26T19:38:11;18.40;;;2.17;;
59074;SDS011;44860;53.020;6.738;2023-03-26T19:40:44;13.70;;;2.03;;
59074;SDS011;44860;53.020;6.738;2023-03-26T19:43:10;10.63;;;1.98;;
59074;SDS011;44860;53.020;6.738;2023-03-26T19:45:39;12.60;;;2.38;;
59074;SDS011;44860;53.020;6.738;2023-03-26T19:48:08;11.30;;;2.15;;
59074;SDS011;44860;53.020;6.738;2023-03-26T19:50:35;7.70;;;1.75;;
59074;SDS011;44860;53.020;6.738;2023-03-26T19:53:18;9.02;;;2.35;;
59074;SDS011;44860;53.020;6.738;2023-03-26T19:55:56;6.55;;;1.98;;
59074;SDS011;44860;53.020;6.738;2023-03-26T19:58:27;12.30;;;2.33;;
59074;SDS011;44860;53.020;6.738;2023-03-26T20:00:54;14.35;;;2.60;;
59074;SDS011;44860;53.020;6.738;2023-03-26T20:03:23;7.30;;;2.00;;
59074;SDS011;44860;53.020;6.738;2023-03-26T20:08:20;9.38;;;1.65;;
59074;SDS011;44860;53.020;6.738;2023-03-26T20:10:51;8.50;;;1.80;;
59074;SDS011;44860;53.020;6.738;2023-03-26T20:13:17;14.52;;;2.10;;
59074;SDS011;44860;53.020;6.738;2023-03-26T20:15:44;11.60;;;2.15;;
59074;SDS011;44860;53.020;6.738;2023-03-26T20:18:17;10.98;;;2.22;;
59074;SDS011;44860;53.020;6.738;2023-03-26T20:20:43;11.70;;;1.80;;
59074;SDS011;44860;53.020;6.738;2023-03-26T20:23:12;9.55;;;2.15;;
59074;SDS011;44860;53.020;6.738;2023-03-26T20:25:47;12.00;;;2.17;;
59074;SDS011;44860;53.020;6.738;2023-03-26T20:28:16;9.52;;;1.92;;
59074;SDS011;44860;53.020;6.738;2023-03-26T20:30:43;10.40;;;1.80;;
59074;SDS011;44860;53.020;6.738;2023-03-26T20:33:13;11.40;;;2.33;;
59074;SDS011;44860;53.020;6.738;2023-03-26T20:35:42;11.93;;;2.13;;
59074;SDS011;44860;53.020;6.738;2023-03-26T20:38:08;11.10;;;1.80;;
59074;SDS011;44860;53.020;6.738;2023-03-26T20:40:35;9.80;;;2.03;;
59074;SDS011;44860;53.020;6.738;2023-03-26T20:43:02;9.52;;;2.13;;
59074;SDS011;44860;53.020;6.738;2023-03-26T20:45:27;11.77;;;2.15;;
59074;SDS011;44860;53.020;6.738;2023-03-26T20:47:53;9.85;;;1.75;;
59074;SDS011;44860;53.020;6.738;2023-03-26T20:50:20;9.35;;;2.20;;
59074;SDS011;44860;53.020;6.738;2023-03-26T20:52:47;12.93;;;2.15;;
59074;SDS011;44860;53.020;6.738;2023-03-26T20:55:15;11.50;;;2.05;;
59074;SDS011;44860;53.020;6.738;2023-03-26T20:57:45;11.82;;;2.35;;
59074;SDS011;44860;53.020;6.738;2023-03-26T21:00:12;8.95;;;1.85;;
59074;SDS011;44860;53.020;6.738;2023-03-26T21:02:55;13.43;;;2.50;;
59074;SDS011;44860;53.020;6.738;2023-03-26T21:05:22;10.93;;;1.90;;
59074;SDS011;44860;53.020;6.738;2023-03-26T21:10:17;11.63;;;1.85;;
59074;SDS011;44860;53.020;6.738;2023-03-26T21:12:48;12.05;;;2.20;;